createdAt,value
2022-08-20T00:03:02.517Z,17.53
2022-08-20T00:06:09.442Z,17.53
2022-08-20T00:09:14.300Z,17.55
2022-08-20T00:12:18.229Z,17.58
2022-08-20T00:15:25.602Z,17.61
2022-08-20T00:18:28.615Z,17.60
2022-08-20T00:21:31.578Z,17.55
2022-08-20T00:24:36.031Z,17.52
2022-08-20T00:27:38.874Z,17.45
2022-08-20T00:30:44.493Z,17.49
2022-08-20T00:33:48.380Z,17.34
2022-08-20T00:36:51.159Z,17.28
2022-08-20T00:39:56.382Z,17.31
2022-08-20T00:43:02.224Z,17.16
2022-08-20T00:46:08.699Z,17.18
2022-08-20T00:49:17.485Z,17.09
2022-08-20T00:52:22.113Z,17.00
2022-08-20T00:55:31.432Z,16.96
2022-08-20T00:58:37.260Z,16.93
2022-08-20T01:01:55.876Z,16.90
2022-08-20T01:04:59.730Z,16.95
2022-08-20T01:08:02.660Z,16.92
2022-08-20T01:11:10.171Z,16.89
2022-08-20T01:14:36.574Z,16.94
2022-08-20T01:18:15.825Z,16.91
2022-08-20T01:22:02.996Z,17.01
2022-08-20T01:25:49.087Z,17.00
2022-08-20T01:33:36.245Z,17.04
2022-08-20T01:37:55.861Z,17.08
2022-08-20T01:41:59.816Z,16.94
2022-08-20T01:45:08.824Z,16.93
2022-08-20T01:48:12.381Z,16.97
2022-08-20T01:51:20.193Z,16.99
2022-08-20T01:54:23.652Z,16.99
2022-08-20T01:57:27.776Z,17.01
2022-08-20T02:00:32.600Z,16.98
2022-08-20T02:03:39.774Z,17.03
2022-08-20T02:06:56.139Z,17.00
2022-08-20T02:10:00.869Z,16.92
2022-08-20T02:13:05.325Z,16.92
2022-08-20T02:16:20.225Z,16.94
2022-08-20T02:19:26.756Z,16.95
2022-08-20T02:22:37.374Z,16.99
2022-08-20T02:25:43.468Z,16.97
2022-08-20T02:28:49.774Z,16.93
2022-08-20T02:32:24.928Z,16.93
2022-08-20T02:35:18.749Z,16.96
2022-08-20T02:38:23.180Z,16.97
2022-08-20T02:41:26.666Z,16.99
2022-08-20T02:44:29.507Z,16.93
2022-08-20T02:47:32.387Z,16.90
2022-08-20T02:50:35.434Z,16.82
2022-08-20T02:53:42.226Z,16.82
2022-08-20T02:56:45.551Z,16.82
2022-08-20T02:59:48.415Z,16.85
2022-08-20T03:02:51.382Z,16.86
2022-08-20T03:05:56.869Z,16.81
2022-08-20T03:09:01.124Z,16.67
2022-08-20T03:12:04.374Z,16.62
2022-08-20T03:15:08.918Z,16.50
2022-08-20T03:18:21.336Z,16.36
2022-08-20T03:21:24.267Z,16.37
2022-08-20T03:24:28.573Z,16.31
2022-08-20T03:27:36.311Z,16.16
2022-08-20T03:30:41.137Z,16.04
2022-08-20T03:33:52.855Z,16.19
2022-08-20T03:36:56.794Z,16.13
2022-08-20T03:40:02.056Z,16.04
2022-08-20T03:43:05.260Z,15.94
2022-08-20T03:46:23.662Z,15.98
2022-08-20T03:49:28.773Z,15.99
2022-08-20T03:52:31.577Z,15.97
2022-08-20T03:55:36.591Z,15.89
2022-08-20T03:58:39.447Z,15.84
2022-08-20T04:01:44.763Z,15.90
2022-08-20T04:04:49.251Z,15.83
2022-08-20T04:07:52.163Z,15.90
2022-08-20T04:10:59.780Z,15.84
2022-08-20T04:14:02.610Z,15.88
2022-08-20T04:17:08.668Z,15.83
2022-08-20T04:20:14.697Z,15.78
2022-08-20T04:23:17.744Z,15.75
2022-08-20T04:26:22.420Z,15.72
2022-08-20T04:29:25.964Z,15.70
2022-08-20T04:32:37.220Z,15.73
2022-08-20T04:35:41.269Z,15.78
2022-08-20T04:38:48.077Z,15.86
2022-08-20T04:41:54.918Z,15.80
2022-08-20T04:44:57.737Z,15.67
2022-08-20T04:48:05.577Z,15.72
2022-08-20T04:51:09.773Z,15.64
2022-08-20T04:54:14.324Z,15.72
2022-08-20T04:57:19.078Z,15.71
2022-08-20T05:00:22.144Z,15.78
2022-08-20T05:03:25.719Z,15.67
2022-08-20T05:06:31.098Z,15.60
2022-08-20T05:09:35.094Z,15.69
2022-08-20T05:12:56.880Z,15.70
2022-08-20T05:16:02.033Z,15.66
2022-08-20T05:19:04.979Z,15.67
2022-08-20T05:22:07.897Z,15.68
2022-08-20T05:25:11.226Z,15.67
2022-08-20T05:28:20.523Z,15.77
2022-08-20T05:31:31.977Z,15.87
2022-08-20T05:34:36.035Z,15.92
2022-08-20T05:37:41.242Z,15.88
2022-08-20T05:40:44.679Z,15.85
2022-08-20T05:43:48.868Z,15.90
2022-08-20T05:46:54.565Z,15.87
2022-08-20T05:49:57.452Z,15.94
2022-08-20T05:53:01.504Z,15.97
2022-08-20T05:56:04.884Z,15.98
2022-08-20T05:59:10.552Z,15.85
2022-08-20T06:02:27.388Z,15.95
2022-08-20T06:05:30.539Z,16.05
2022-08-20T06:08:33.739Z,16.06
2022-08-20T06:11:46.547Z,16.01
2022-08-20T06:14:50.725Z,15.92
2022-08-20T06:17:58.051Z,15.88
2022-08-20T06:21:01.377Z,15.99
2022-08-20T06:24:04.886Z,15.96
2022-08-20T06:27:08.119Z,15.95
2022-08-20T06:30:14.550Z,16.01
2022-08-20T06:33:17.363Z,15.99
2022-08-20T06:36:20.316Z,16.01
2022-08-20T06:39:23.294Z,16.04
2022-08-20T06:42:26.214Z,16.05
2022-08-20T06:45:32.713Z,16.17
2022-08-20T06:48:35.592Z,16.11
2022-08-20T06:51:38.518Z,16.10
2022-08-20T06:54:44.290Z,16.06
2022-08-20T06:57:48.430Z,16.11
2022-08-20T07:00:52.919Z,16.08
2022-08-20T07:03:58.877Z,16.02
2022-08-20T07:07:01.764Z,16.06
2022-08-20T07:10:07.075Z,16.19
2022-08-20T07:13:10.275Z,16.15
2022-08-20T07:16:14.482Z,16.16
2022-08-20T07:19:17.799Z,16.21
2022-08-20T07:22:20.668Z,16.31
2022-08-20T07:25:23.992Z,16.28
2022-08-20T07:28:29.670Z,16.34
2022-08-20T07:31:51.276Z,16.32
2022-08-20T07:34:54.073Z,16.31
2022-08-20T07:37:56.987Z,16.24
2022-08-20T07:41:01.919Z,16.32
2022-08-20T07:44:05.098Z,16.40
2022-08-20T07:47:09.375Z,16.44
2022-08-20T07:50:14.443Z,16.48
2022-08-20T07:53:17.714Z,16.49
2022-08-20T07:56:24.235Z,16.53
2022-08-20T07:59:27.395Z,16.53
2022-08-20T08:02:31.914Z,16.56
2022-08-20T08:05:38.267Z,16.55
2022-08-20T08:08:42.161Z,16.66
2022-08-20T08:11:50.264Z,16.50
2022-08-20T08:14:55.831Z,16.51
2022-08-20T08:18:07.905Z,16.58
2022-08-20T08:21:12.965Z,16.58
2022-08-20T08:24:21.658Z,16.63
2022-08-20T08:27:26.380Z,16.57
2022-08-20T08:30:29.377Z,16.63
2022-08-20T08:33:33.880Z,16.59
2022-08-20T08:36:36.720Z,16.64
2022-08-20T08:39:39.627Z,16.75
2022-08-20T08:42:47.232Z,16.77
2022-08-20T08:45:57.589Z,16.83
2022-08-20T08:49:02.886Z,16.81
2022-08-20T08:52:11.672Z,16.74
2022-08-20T08:55:20.500Z,16.80
2022-08-20T08:58:23.966Z,16.72
2022-08-20T09:01:53.997Z,16.81
2022-08-20T09:04:51.932Z,16.86
2022-08-20T09:07:55.177Z,16.90
2022-08-20T09:11:02.670Z,16.89
2022-08-20T09:14:05.771Z,16.84
2022-08-20T09:17:09.192Z,16.86
2022-08-20T09:20:13.868Z,17.00
2022-08-20T09:23:16.734Z,17.04
2022-08-20T09:26:19.867Z,16.87
2022-08-20T09:29:25.118Z,16.99
2022-08-20T09:32:29.799Z,16.87
2022-08-20T09:35:36.323Z,16.88
2022-08-20T09:38:39.262Z,16.82
2022-08-20T09:41:45.130Z,16.81
2022-08-20T09:44:49.274Z,16.91
2022-08-20T09:47:55.403Z,17.00
2022-08-20T09:51:01.616Z,17.03
2022-08-20T09:54:04.824Z,17.01
2022-08-20T09:57:10.866Z,17.06
2022-08-20T10:00:15.559Z,17.08
2022-08-20T10:03:20.888Z,17.12
2022-08-20T10:06:25.830Z,17.11
2022-08-20T10:09:28.638Z,17.07
2022-08-20T10:12:32.387Z,17.18
2022-08-20T10:15:36.424Z,17.30
2022-08-20T10:18:40.232Z,17.36
2022-08-20T10:21:44.578Z,17.31
2022-08-20T10:24:47.789Z,17.30
2022-08-20T10:27:50.900Z,17.36
2022-08-20T10:30:53.968Z,17.33
2022-08-20T10:33:56.893Z,17.40
2022-08-20T10:37:01.083Z,17.43
2022-08-20T10:40:05.117Z,17.44
2022-08-20T10:43:08.310Z,17.41
2022-08-20T10:46:11.484Z,17.38
2022-08-20T10:49:14.581Z,17.44
2022-08-20T10:52:19.343Z,17.45
2022-08-20T10:55:22.419Z,17.46
2022-08-20T10:58:25.781Z,17.49
2022-08-20T11:01:31.172Z,17.55
2022-08-20T11:04:37.614Z,17.58
2022-08-20T11:07:50.678Z,17.51
2022-08-20T11:10:59.839Z,17.51
2022-08-20T11:14:02.970Z,17.60
2022-08-20T11:17:07.215Z,17.62
2022-08-20T11:20:12.098Z,17.64
2022-08-20T11:23:16.365Z,17.63
2022-08-20T11:26:23.482Z,17.70
2022-08-20T11:29:29.081Z,17.75
2022-08-20T11:32:34.576Z,17.76
2022-08-20T11:35:48.519Z,17.76
2022-08-20T11:38:53.832Z,17.83
2022-08-20T11:41:56.895Z,17.81
2022-08-20T11:44:59.682Z,17.80
2022-08-20T11:48:02.540Z,17.81
2022-08-20T11:51:05.732Z,17.87
2022-08-20T11:54:10.305Z,17.86
2022-08-20T11:57:14.955Z,17.87
2022-08-20T12:00:20.242Z,17.91
2022-08-20T12:03:35.418Z,17.98
2022-08-20T12:06:38.366Z,17.97
2022-08-20T12:09:50.767Z,17.98
2022-08-20T12:12:54.109Z,17.96
2022-08-20T12:15:58.217Z,17.96
2022-08-20T12:19:01.171Z,18.01
2022-08-20T12:22:23.137Z,18.08
2022-08-20T12:25:28.619Z,18.05
2022-08-20T12:28:32.327Z,18.05
2022-08-20T12:31:35.180Z,18.14
2022-08-20T12:34:40.128Z,18.10
2022-08-20T12:37:44.059Z,18.19
2022-08-20T12:40:48.358Z,18.16
2022-08-20T12:43:51.462Z,18.13
2022-08-20T12:47:05.855Z,18.21
2022-08-20T12:50:11.351Z,18.24
2022-08-20T12:53:14.656Z,18.17
2022-08-20T12:56:19.075Z,18.25
2022-08-20T12:59:26.119Z,18.30
2022-08-20T13:02:29.494Z,18.26
2022-08-20T13:05:34.246Z,18.34
2022-08-20T13:08:37.314Z,18.31
2022-08-20T13:11:42.382Z,18.33
2022-08-20T13:14:46.166Z,18.33
2022-08-20T13:17:53.124Z,18.34
2022-08-20T13:20:56.157Z,18.38
2022-08-20T13:23:58.947Z,18.39
2022-08-20T13:27:08.696Z,18.42
2022-08-20T13:30:14.774Z,18.42
2022-08-20T13:33:17.631Z,18.44
2022-08-20T13:36:20.670Z,18.46
2022-08-20T13:39:24.754Z,18.50
2022-08-20T13:42:29.237Z,18.55
2022-08-20T13:45:32.118Z,18.56
2022-08-20T13:48:34.996Z,18.59
2022-08-20T13:51:38.014Z,18.65
2022-08-20T13:54:41.718Z,18.63
2022-08-20T13:57:47.547Z,18.65
2022-08-20T14:00:51.419Z,18.72
2022-08-20T14:03:54.466Z,18.72
2022-08-20T14:06:57.498Z,18.68
2022-08-20T14:10:03.394Z,18.70
2022-08-20T14:13:11.154Z,18.65
2022-08-20T14:16:25.316Z,18.79
2022-08-20T14:19:31.044Z,18.81
2022-08-20T14:22:36.406Z,18.83
2022-08-20T14:25:39.627Z,18.81
2022-08-20T14:28:43.904Z,18.84
2022-08-20T14:31:46.929Z,18.91
2022-08-20T14:34:49.929Z,18.81
2022-08-20T14:37:55.554Z,18.75
2022-08-20T14:40:58.401Z,18.88
2022-08-20T14:44:04.412Z,18.80
2022-08-20T14:47:16.827Z,18.82
2022-08-20T14:50:21.557Z,18.80
2022-08-20T14:53:24.368Z,18.83
2022-08-20T14:56:27.298Z,18.83
2022-08-20T14:59:31.943Z,18.80
2022-08-20T15:02:34.788Z,18.78
2022-08-20T15:05:39.255Z,18.79
2022-08-20T15:08:42.755Z,18.87
2022-08-20T15:11:46.061Z,18.88
2022-08-20T15:14:50.984Z,18.99
2022-08-20T15:17:55.971Z,19.04
2022-08-20T15:20:58.860Z,19.09
2022-08-20T15:24:01.693Z,19.08
2022-08-20T15:27:12.724Z,19.24
2022-08-20T15:30:19.838Z,19.27
2022-08-20T15:33:22.817Z,19.32
2022-08-20T15:36:25.871Z,19.38
2022-08-20T15:39:29.143Z,19.32
2022-08-20T15:42:31.949Z,19.35
2022-08-20T15:45:36.950Z,19.31
2022-08-20T15:48:41.887Z,19.28
2022-08-20T15:51:48.231Z,19.35
2022-08-20T15:54:52.469Z,19.41
2022-08-20T15:58:06.443Z,19.43
2022-08-20T16:01:25.088Z,19.48
2022-08-20T16:04:58.469Z,19.54
2022-08-20T16:08:13.119Z,19.51
2022-08-20T16:11:25.158Z,19.53
2022-08-20T16:14:31.338Z,19.46
2022-08-20T16:17:42.010Z,19.51
2022-08-20T16:20:48.037Z,19.52
2022-08-20T16:23:51.002Z,19.57
2022-08-20T16:27:10.165Z,19.52
2022-08-20T16:30:22.020Z,19.50
2022-08-20T16:33:31.310Z,19.42
2022-08-20T16:36:38.174Z,19.41
2022-08-20T16:39:49.913Z,19.41
2022-08-20T16:42:54.918Z,19.39
2022-08-20T16:46:03.510Z,19.40
2022-08-20T16:49:13.525Z,19.31
2022-08-20T16:52:16.628Z,19.30
2022-08-20T16:55:20.523Z,19.31
2022-08-20T16:58:23.426Z,19.32
2022-08-20T17:01:27.644Z,19.34
2022-08-20T17:04:31.960Z,19.42
2022-08-20T17:07:46.288Z,19.34
2022-08-20T17:10:59.223Z,19.20
2022-08-20T17:14:13.086Z,19.20
2022-08-20T17:17:23.505Z,19.28
2022-08-20T17:20:29.238Z,19.35
2022-08-20T17:23:54.805Z,19.34
2022-08-20T17:27:02.531Z,19.37
2022-08-20T17:30:11.532Z,19.40
2022-08-20T17:33:28.363Z,19.36
2022-08-20T17:36:33.275Z,19.32
2022-08-20T17:39:36.250Z,19.29
2022-08-20T17:42:48.274Z,19.36
2022-08-20T17:45:51.351Z,19.36
2022-08-20T17:48:55.788Z,19.29
2022-08-20T17:52:01.114Z,19.17
2022-08-20T17:55:04.574Z,19.24
2022-08-20T17:58:12.572Z,19.20
2022-08-20T18:01:17.981Z,19.22
2022-08-20T18:04:20.994Z,19.21
2022-08-20T18:07:28.414Z,19.25
2022-08-20T18:10:37.704Z,19.28
2022-08-20T18:13:54.203Z,19.26
2022-08-20T18:17:11.377Z,19.25
2022-08-20T18:20:37.524Z,19.24
2022-08-20T18:23:47.464Z,19.22
2022-08-20T18:26:55.036Z,19.21
2022-08-20T18:30:01.479Z,19.13
2022-08-20T18:33:09.980Z,19.17
2022-08-20T18:36:24.516Z,19.19
2022-08-20T18:39:32.134Z,19.14
2022-08-20T18:42:37.025Z,19.10
2022-08-20T18:45:40.036Z,18.97
2022-08-20T18:48:58.505Z,18.89
2022-08-20T18:52:11.079Z,18.96
2022-08-20T18:55:32.482Z,18.98
2022-08-20T18:58:40.403Z,18.99
2022-08-20T19:01:43.996Z,18.97
2022-08-20T19:04:52.834Z,18.98
2022-08-20T19:08:07.845Z,18.81
2022-08-20T19:11:29.684Z,18.76
2022-08-20T19:15:01.044Z,18.62
2022-08-20T19:18:09.341Z,18.65
2022-08-20T19:21:15.595Z,18.66
2022-08-20T19:24:25.646Z,18.74
2022-08-20T19:27:30.917Z,18.72
2022-08-20T19:30:37.405Z,18.78
2022-08-20T19:33:44.035Z,18.74
2022-08-20T19:36:53.698Z,18.67
2022-08-20T19:39:58.867Z,18.66
2022-08-20T19:43:07.723Z,18.60
2022-08-20T19:46:10.697Z,18.48
2022-08-20T19:49:21.883Z,18.19
2022-08-20T19:52:36.178Z,17.85
2022-08-20T19:55:40.813Z,17.72
2022-08-20T19:58:46.215Z,17.51
2022-08-20T20:01:58.940Z,17.56
2022-08-20T20:05:06.483Z,17.64
2022-08-20T20:08:12.203Z,17.70
2022-08-20T20:11:20.384Z,17.71
2022-08-20T20:14:29.838Z,17.60
2022-08-20T20:17:35.318Z,17.53
2022-08-20T20:20:57.285Z,17.60
2022-08-20T20:24:02.370Z,17.58
2022-08-20T20:27:13.563Z,17.54
2022-08-20T20:30:27.173Z,17.51
2022-08-20T20:33:35.861Z,17.60
2022-08-20T20:36:41.727Z,17.34
2022-08-20T20:39:46.891Z,17.54
2022-08-20T20:42:59.277Z,17.60
2022-08-20T20:46:08.286Z,17.65
2022-08-20T20:49:22.789Z,17.70
2022-08-20T20:52:29.431Z,17.72
2022-08-20T20:55:35.531Z,17.65
2022-08-20T20:59:06.776Z,17.66
2022-08-20T21:02:16.888Z,17.68
2022-08-20T21:05:22.657Z,17.68
2022-08-20T21:08:27.716Z,17.66
2022-08-20T21:11:33.334Z,17.69
2022-08-20T21:14:37.131Z,17.69
2022-08-20T21:17:41.632Z,17.64
2022-08-20T21:20:44.952Z,17.61
2022-08-20T21:23:47.687Z,17.57
2022-08-20T21:26:51.906Z,17.61
2022-08-20T21:29:55.657Z,17.62
2022-08-20T21:33:00.630Z,17.65
2022-08-20T21:36:03.712Z,17.72
2022-08-20T21:39:06.586Z,17.68
2022-08-20T21:42:18.536Z,17.70
2022-08-20T21:45:32.328Z,17.79
2022-08-20T21:48:36.445Z,17.83
2022-08-20T21:51:47.338Z,17.86
2022-08-20T21:54:59.896Z,17.81
2022-08-20T21:58:13.212Z,17.74
2022-08-20T22:01:28.128Z,17.79
2022-08-20T22:04:35.492Z,17.81
2022-08-20T22:07:38.776Z,17.84
2022-08-20T22:10:51.000Z,17.71
2022-08-20T22:13:54.041Z,17.67
2022-08-20T22:16:57.150Z,17.77
2022-08-20T22:20:02.343Z,17.85
2022-08-20T22:23:06.540Z,17.70
2022-08-20T22:26:09.694Z,17.65
2022-08-20T22:29:13.211Z,17.52
2022-08-20T22:32:16.215Z,17.42
2022-08-20T22:35:22.620Z,17.55
2022-08-20T22:38:26.107Z,17.50
2022-08-20T22:41:29.294Z,17.61
2022-08-20T22:44:32.068Z,17.66
2022-08-20T22:47:35.814Z,17.60
2022-08-20T22:50:40.730Z,17.67
2022-08-20T22:53:45.340Z,17.62
2022-08-20T22:56:48.179Z,17.71
2022-08-20T22:59:54.669Z,17.73
2022-08-20T23:02:59.815Z,17.66
2022-08-20T23:06:04.027Z,17.64
2022-08-20T23:09:06.906Z,17.69
2022-08-20T23:12:13.309Z,17.56
2022-08-20T23:15:33.874Z,17.60
2022-08-20T23:18:51.700Z,17.46
2022-08-20T23:22:00.448Z,17.55
2022-08-20T23:25:03.594Z,17.54
2022-08-20T23:28:06.371Z,17.59
2022-08-20T23:31:09.355Z,17.55
2022-08-20T23:34:12.138Z,17.54
2022-08-20T23:37:20.012Z,17.61
2022-08-20T23:40:28.168Z,17.60
2022-08-20T23:43:31.288Z,17.58
2022-08-20T23:46:37.414Z,17.49
2022-08-20T23:49:40.191Z,17.53
2022-08-20T23:52:44.571Z,17.46
2022-08-20T23:55:47.416Z,17.50
2022-08-20T23:58:50.365Z,17.54
